createdAt,value
2022-11-24T00:00:05.799Z,4.65
2022-11-24T00:02:34.668Z,4.50
2022-11-24T00:05:02.036Z,4.40
2022-11-24T00:07:29.521Z,4.03
2022-11-24T00:09:56.888Z,4.20
2022-11-24T00:12:24.223Z,4.53
2022-11-24T00:14:51.527Z,3.97
2022-11-24T00:17:18.844Z,4.35
2022-11-24T00:19:47.617Z,4.00
2022-11-24T00:22:15.030Z,4.37
2022-11-24T00:24:42.354Z,4.30
2022-11-24T00:27:09.683Z,4.22
2022-11-24T00:29:37.491Z,4.13
2022-11-24T00:32:05.093Z,4.40
2022-11-24T00:34:33.090Z,3.97
2022-11-24T00:37:02.135Z,4.15
2022-11-24T00:39:29.446Z,4.33
2022-11-24T00:41:56.775Z,4.50
2022-11-24T00:44:24.077Z,4.60
2022-11-24T00:46:51.477Z,4.28
2022-11-24T00:49:18.894Z,4.47
2022-11-24T00:51:46.199Z,4.25
2022-11-24T00:54:14.954Z,4.10
2022-11-24T00:56:42.272Z,5.00
2022-11-24T00:59:10.414Z,4.13
2022-11-24T01:01:37.880Z,4.50
2022-11-24T01:04:05.791Z,3.75
2022-11-24T01:06:33.144Z,4.32
2022-11-24T01:09:00.456Z,4.07
2022-11-24T01:11:31.155Z,4.18
2022-11-24T01:13:59.705Z,4.25
2022-11-24T01:16:29.847Z,4.18
2022-11-24T01:18:58.064Z,4.18
2022-11-24T01:21:25.476Z,4.30
2022-11-24T01:23:52.802Z,5.07
2022-11-24T01:26:21.994Z,4.13
2022-11-24T01:28:54.759Z,4.53
2022-11-24T01:31:22.470Z,4.10
2022-11-24T01:33:49.888Z,3.83
2022-11-24T01:36:17.197Z,4.38
2022-11-24T01:38:44.671Z,4.10
2022-11-24T01:41:13.975Z,4.05
2022-11-24T01:43:42.014Z,4.45
2022-11-24T01:46:20.306Z,4.60
2022-11-24T01:48:51.387Z,4.05
2022-11-24T01:51:22.578Z,4.05
2022-11-24T01:53:54.725Z,4.13
2022-11-24T01:56:22.207Z,4.22
2022-11-24T01:58:53.460Z,3.60
2022-11-24T02:01:22.299Z,4.15
2022-11-24T02:03:50.992Z,4.00
2022-11-24T02:06:23.812Z,4.00
2022-11-24T02:08:57.243Z,3.78
2022-11-24T02:11:28.495Z,4.78
2022-11-24T02:13:57.346Z,3.90
2022-11-24T02:16:27.027Z,5.10
2022-11-24T02:18:54.454Z,4.65
2022-11-24T02:21:21.939Z,4.40
2022-11-24T02:23:57.335Z,4.70
2022-11-24T02:26:40.426Z,4.63
2022-11-24T02:29:07.897Z,4.40
2022-11-24T02:31:35.327Z,4.35
2022-11-24T02:34:02.782Z,4.85
2022-11-24T02:36:30.763Z,5.13
2022-11-24T02:38:58.063Z,4.97
2022-11-24T02:41:27.788Z,4.97
2022-11-24T02:46:26.377Z,4.50
2022-11-24T02:48:53.904Z,4.55
2022-11-24T02:51:21.248Z,4.68
2022-11-24T02:53:48.576Z,4.57
2022-11-24T02:56:15.930Z,4.35
2022-11-24T02:58:43.251Z,4.25
2022-11-24T03:01:12.097Z,4.50
2022-11-24T03:03:39.734Z,4.50
2022-11-24T03:06:07.080Z,4.03
2022-11-24T03:08:34.393Z,4.32
2022-11-24T03:11:02.096Z,4.57
2022-11-24T03:13:30.156Z,5.05
2022-11-24T03:15:57.554Z,4.65
2022-11-24T03:18:26.451Z,5.30
2022-11-24T03:20:58.846Z,5.03
2022-11-24T03:23:27.084Z,4.70
2022-11-24T03:25:54.411Z,5.10
2022-11-24T03:28:22.070Z,4.53
2022-11-24T03:30:49.567Z,4.30
2022-11-24T03:33:16.920Z,5.03
2022-11-24T03:35:45.681Z,4.63
2022-11-24T03:38:12.991Z,4.70
2022-11-24T03:40:40.302Z,4.90
2022-11-24T03:43:07.703Z,4.75
2022-11-24T03:45:50.340Z,4.95
2022-11-24T03:48:19.024Z,5.65
2022-11-24T03:50:53.340Z,4.88
2022-11-24T03:53:21.268Z,4.60
2022-11-24T03:55:48.651Z,5.47
2022-11-24T03:58:16.195Z,4.78
2022-11-24T04:00:43.724Z,5.72
2022-11-24T04:03:11.611Z,5.40
2022-11-24T04:05:39.045Z,5.35
2022-11-24T04:08:08.095Z,4.60
2022-11-24T04:10:37.759Z,4.93
2022-11-24T04:15:33.042Z,5.55
2022-11-24T04:18:00.420Z,5.80
2022-11-24T04:20:28.025Z,5.07
2022-11-24T04:22:55.415Z,4.90
2022-11-24T04:25:24.505Z,6.07
2022-11-24T04:27:52.990Z,5.88
2022-11-24T04:30:21.961Z,6.10
2022-11-24T04:32:49.619Z,5.80
2022-11-24T04:35:17.574Z,6.00
2022-11-24T04:37:45.046Z,5.40
2022-11-24T04:40:13.529Z,6.18
2022-11-24T04:42:42.539Z,5.30
2022-11-24T04:45:11.201Z,5.65
2022-11-24T04:47:38.675Z,5.45
2022-11-24T04:50:07.146Z,6.40
2022-11-24T04:52:35.053Z,6.30
2022-11-24T04:55:02.720Z,5.13
2022-11-24T04:57:30.159Z,7.35
2022-11-24T04:59:59.188Z,6.63
2022-11-24T05:02:26.580Z,7.72
2022-11-24T05:04:53.918Z,7.15
2022-11-24T05:07:21.472Z,6.65
2022-11-24T05:09:59.252Z,5.97
2022-11-24T05:12:28.110Z,5.30
2022-11-24T05:14:55.493Z,6.05
2022-11-24T05:17:24.775Z,5.60
2022-11-24T05:19:52.128Z,7.28
2022-11-24T05:22:19.441Z,7.25
2022-11-24T05:24:46.926Z,7.35
2022-11-24T05:27:14.247Z,7.30
2022-11-24T05:29:41.571Z,5.72
2022-11-24T05:32:09.037Z,5.75
2022-11-24T05:34:37.917Z,9.95
2022-11-24T05:37:05.891Z,8.10
2022-11-24T05:39:33.726Z,9.02
2022-11-24T05:42:02.730Z,8.30
2022-11-24T05:44:30.092Z,9.10
2022-11-24T05:46:57.532Z,8.95
2022-11-24T05:49:24.927Z,10.95
2022-11-24T05:51:53.724Z,11.93
2022-11-24T05:54:21.237Z,12.03
2022-11-24T05:56:48.609Z,11.77
2022-11-24T05:59:16.233Z,11.32
2022-11-24T06:01:43.636Z,12.55
2022-11-24T06:04:11.204Z,11.32
2022-11-24T06:06:38.612Z,12.20
2022-11-24T06:09:07.465Z,12.32
2022-11-24T06:11:34.906Z,12.00
2022-11-24T06:14:04.706Z,12.45
2022-11-24T06:16:35.765Z,11.57
2022-11-24T06:19:03.192Z,13.55
2022-11-24T06:21:30.613Z,11.95
2022-11-24T06:23:58.037Z,11.18
2022-11-24T06:26:26.792Z,12.63
2022-11-24T06:28:54.593Z,12.50
2022-11-24T06:34:23.541Z,12.07
2022-11-24T06:36:51.372Z,11.18
2022-11-24T06:39:18.771Z,11.18
2022-11-24T06:41:50.209Z,11.65
2022-11-24T06:44:18.217Z,11.43
2022-11-24T06:46:45.650Z,11.93
2022-11-24T06:49:14.576Z,11.57
2022-11-24T06:51:42.079Z,10.55
2022-11-24T06:54:10.409Z,10.43
2022-11-24T06:56:37.808Z,12.38
2022-11-24T06:59:06.738Z,11.88
2022-11-24T07:01:34.187Z,12.52
2022-11-24T07:04:01.580Z,13.55
2022-11-24T07:06:29.054Z,10.93
2022-11-24T07:08:56.483Z,12.93
2022-11-24T07:11:24.445Z,19.65
2022-11-24T07:13:58.161Z,15.52
2022-11-24T07:16:29.229Z,13.52
2022-11-24T07:18:57.154Z,14.20
2022-11-24T07:21:25.648Z,13.52
2022-11-24T07:23:54.115Z,12.73
2022-11-24T07:26:22.507Z,12.32
2022-11-24T07:28:50.644Z,13.18
2022-11-24T07:31:20.562Z,22.75
2022-11-24T07:33:50.841Z,57.20
2022-11-24T07:36:19.372Z,180.65
2022-11-24T07:38:47.449Z,72.15
2022-11-24T07:41:16.478Z,70.63
2022-11-24T07:43:43.924Z,48.85
2022-11-24T07:46:13.236Z,57.97
2022-11-24T07:48:40.947Z,55.15
2022-11-24T07:51:10.276Z,49.63
2022-11-24T07:53:38.509Z,31.45
2022-11-24T07:56:07.248Z,52.63
2022-11-24T07:58:36.455Z,51.47
2022-11-24T08:01:14.869Z,40.42
2022-11-24T08:03:43.724Z,47.70
2022-11-24T08:06:37.470Z,43.87
2022-11-24T08:09:01.081Z,45.75
2022-11-24T08:11:29.097Z,43.75
2022-11-24T08:13:56.512Z,36.45
2022-11-24T08:16:24.026Z,48.03
2022-11-24T08:18:53.366Z,39.55
2022-11-24T08:21:22.848Z,43.60
2022-11-24T08:26:18.363Z,49.67
2022-11-24T08:28:46.943Z,29.17
2022-11-24T08:31:17.330Z,40.67
2022-11-24T08:33:46.005Z,38.03
2022-11-24T08:36:15.578Z,32.45
2022-11-24T08:38:44.678Z,26.33
2022-11-24T08:41:14.200Z,29.92
2022-11-24T08:43:41.865Z,29.38
2022-11-24T08:46:11.082Z,28.65
2022-11-24T08:48:38.754Z,27.65
2022-11-24T08:51:08.216Z,29.20
2022-11-24T08:53:35.576Z,27.00
2022-11-24T08:56:05.945Z,30.33
2022-11-24T08:58:34.131Z,22.70
2022-11-24T09:01:06.026Z,20.40
2022-11-24T09:03:34.474Z,15.60
2022-11-24T09:06:01.950Z,17.35
2022-11-24T09:08:30.159Z,17.63
2022-11-24T09:11:00.542Z,14.80
2022-11-24T09:13:29.403Z,16.92
2022-11-24T09:15:56.914Z,16.83
2022-11-24T09:18:28.860Z,29.73
2022-11-24T09:21:06.627Z,27.13
2022-11-24T09:23:34.058Z,26.20
2022-11-24T09:26:04.521Z,31.33
2022-11-24T09:28:33.449Z,25.17
2022-11-24T09:31:02.419Z,30.45
2022-11-24T09:33:30.799Z,30.73
2022-11-24T09:35:58.460Z,33.80
2022-11-24T09:38:26.158Z,29.88
2022-11-24T09:40:56.901Z,30.20
2022-11-24T09:43:32.733Z,32.65
2022-11-24T09:46:09.023Z,36.55
2022-11-24T09:48:40.908Z,35.67
2022-11-24T09:51:11.599Z,34.95
2022-11-24T09:53:44.674Z,33.72
2022-11-24T09:56:19.535Z,34.92
2022-11-24T09:58:50.029Z,35.92
2022-11-24T10:01:20.913Z,34.25
2022-11-24T10:03:50.914Z,34.00
2022-11-24T10:06:26.994Z,35.38
2022-11-24T10:09:10.094Z,35.33
2022-11-24T10:11:43.162Z,33.38
2022-11-24T10:14:32.982Z,33.08
2022-11-24T10:17:10.412Z,33.10
2022-11-24T10:19:48.671Z,34.13
2022-11-24T10:22:31.268Z,32.88
2022-11-24T10:25:09.470Z,33.78
2022-11-24T10:27:41.922Z,35.22
2022-11-24T10:30:16.040Z,33.60
2022-11-24T10:32:47.601Z,34.30
2022-11-24T10:35:18.984Z,33.38
2022-11-24T10:37:55.202Z,32.28
2022-11-24T10:40:55.977Z,34.03
2022-11-24T10:43:20.156Z,29.98
2022-11-24T10:45:47.696Z,30.92
2022-11-24T10:48:22.191Z,31.52
2022-11-24T10:50:49.572Z,32.13
2022-11-24T10:53:22.820Z,29.90
2022-11-24T10:56:04.928Z,29.60
2022-11-24T10:58:37.789Z,29.38
2022-11-24T11:01:21.517Z,28.75
2022-11-24T11:03:52.615Z,28.77
2022-11-24T11:06:22.967Z,29.55
2022-11-24T11:09:10.803Z,30.13
2022-11-24T11:11:39.408Z,31.30
2022-11-24T11:14:10.131Z,33.22
2022-11-24T11:16:39.604Z,34.33
2022-11-24T11:19:48.528Z,37.05
2022-11-24T11:22:24.850Z,35.42
2022-11-24T11:25:05.882Z,34.92
2022-11-24T11:27:33.663Z,34.70
2022-11-24T11:36:12.005Z,32.03
2022-11-24T11:41:16.982Z,27.95
2022-11-24T11:43:47.798Z,33.10
2022-11-24T11:46:15.755Z,34.15
2022-11-24T11:48:45.363Z,35.35
2022-11-24T11:51:39.263Z,35.85
2022-11-24T11:54:15.479Z,34.65
2022-11-24T11:56:44.574Z,35.22
2022-11-24T11:59:33.077Z,34.22
2022-11-24T12:02:30.405Z,30.63
2022-11-24T12:05:00.907Z,28.38
2022-11-24T12:07:58.045Z,29.95
2022-11-24T12:10:31.563Z,28.15
2022-11-24T12:13:32.310Z,28.10
2022-11-24T12:16:09.092Z,26.60
2022-11-24T12:18:57.506Z,25.70
2022-11-24T12:21:34.029Z,26.88
2022-11-24T12:24:13.009Z,25.45
2022-11-24T12:26:44.475Z,27.38
2022-11-24T12:29:35.801Z,25.63
2022-11-24T12:32:14.776Z,24.80
2022-11-24T12:34:52.552Z,25.07
2022-11-24T12:37:40.894Z,25.52
2022-11-24T12:40:15.127Z,25.73
2022-11-24T12:42:56.521Z,23.73
2022-11-24T12:45:33.548Z,24.75
2022-11-24T12:48:32.123Z,24.73
2022-11-24T12:51:00.503Z,23.25
2022-11-24T12:53:32.307Z,23.65
2022-11-24T12:56:10.625Z,23.25
2022-11-24T12:58:43.234Z,23.48
2022-11-24T13:01:19.073Z,22.92
2022-11-24T13:04:01.380Z,22.45
2022-11-24T13:06:35.736Z,22.75
2022-11-24T13:09:08.650Z,22.30
2022-11-24T13:11:41.066Z,22.52
2022-11-24T13:14:15.847Z,22.30
2022-11-24T13:19:46.433Z,21.85
2022-11-24T13:22:23.493Z,22.05
2022-11-24T13:25:15.725Z,20.48
2022-11-24T13:27:47.735Z,21.23
2022-11-24T13:30:53.910Z,20.17
2022-11-24T13:33:33.677Z,20.55
2022-11-24T13:38:59.073Z,20.38
2022-11-24T13:42:08.886Z,20.38
2022-11-24T13:44:55.147Z,21.02
2022-11-24T13:47:37.387Z,23.40
2022-11-24T13:50:13.061Z,20.40
2022-11-24T13:52:53.866Z,23.40
2022-11-24T13:55:28.306Z,21.40
2022-11-24T13:57:59.575Z,21.45
2022-11-24T14:00:29.839Z,22.35
2022-11-24T14:03:01.498Z,22.65
2022-11-24T14:05:36.803Z,21.88
2022-11-24T14:08:06.562Z,21.38
2022-11-24T14:13:25.350Z,20.90
2022-11-24T14:16:05.830Z,21.20
2022-11-24T14:18:34.535Z,20.48
2022-11-24T14:21:21.144Z,21.48
2022-11-24T14:23:51.600Z,19.48
2022-11-24T14:26:21.340Z,20.77
2022-11-24T14:31:23.296Z,21.23
2022-11-24T14:33:51.578Z,20.33
2022-11-24T14:36:18.921Z,19.30
2022-11-24T14:38:47.080Z,18.95
2022-11-24T14:41:22.696Z,18.83
2022-11-24T14:43:50.135Z,18.38
2022-11-24T14:46:20.555Z,20.67
2022-11-24T14:48:49.832Z,19.00
2022-11-24T14:51:21.057Z,17.67
2022-11-24T14:53:51.047Z,17.73
2022-11-24T14:56:27.482Z,18.35
2022-11-24T14:58:56.022Z,17.85
2022-11-24T15:01:31.866Z,17.40
2022-11-24T15:04:26.599Z,16.73
2022-11-24T15:07:06.383Z,16.45
2022-11-24T15:09:38.352Z,16.33
2022-11-24T15:12:08.031Z,16.38
2022-11-24T15:14:51.353Z,16.70
2022-11-24T15:17:23.521Z,16.30
2022-11-24T15:19:53.977Z,16.38
2022-11-24T15:22:34.342Z,15.75
2022-11-24T15:25:02.246Z,15.82
2022-11-24T15:27:29.670Z,16.15
2022-11-24T15:29:57.061Z,14.68
2022-11-24T15:32:25.876Z,15.55
2022-11-24T15:34:53.220Z,13.67
2022-11-24T15:37:20.967Z,16.17
2022-11-24T15:39:48.382Z,13.75
2022-11-24T15:42:15.887Z,14.27
2022-11-24T15:44:43.301Z,13.70
2022-11-24T15:47:10.800Z,14.45
2022-11-24T15:49:39.707Z,13.13
2022-11-24T15:52:07.035Z,13.20
2022-11-24T15:54:34.680Z,13.13
2022-11-24T15:57:02.497Z,13.48
2022-11-24T15:59:30.086Z,13.45
2022-11-24T16:01:57.643Z,12.43
2022-11-24T16:04:25.024Z,12.80
2022-11-24T16:06:53.891Z,12.70
2022-11-24T16:09:21.244Z,12.43
2022-11-24T16:11:48.602Z,12.30
2022-11-24T16:14:15.992Z,11.85
2022-11-24T16:16:43.675Z,11.93
2022-11-24T16:19:11.443Z,12.77
2022-11-24T16:21:39.088Z,11.40
2022-11-24T16:24:08.456Z,10.75
2022-11-24T16:29:03.711Z,11.20
2022-11-24T16:31:31.095Z,10.85
2022-11-24T16:33:58.575Z,11.20
2022-11-24T16:36:25.948Z,10.43
2022-11-24T16:38:53.363Z,11.02
2022-11-24T16:41:22.234Z,10.90
2022-11-24T16:43:49.578Z,10.63
2022-11-24T16:46:19.589Z,11.75
2022-11-24T16:48:48.671Z,10.52
2022-11-24T16:51:18.416Z,11.27
2022-11-24T16:53:46.240Z,10.20
2022-11-24T16:56:13.834Z,10.20
2022-11-24T16:58:43.256Z,10.45
2022-11-24T17:01:12.692Z,10.75
2022-11-24T17:03:40.395Z,9.88
2022-11-24T17:06:10.124Z,10.07
2022-11-24T17:11:06.673Z,10.40
2022-11-24T17:13:34.481Z,9.27
2022-11-24T17:16:05.603Z,9.40
2022-11-24T17:18:33.936Z,9.40
2022-11-24T17:21:07.675Z,9.23
2022-11-24T17:23:38.054Z,8.93
2022-11-24T17:26:07.659Z,9.35
2022-11-24T17:28:35.698Z,8.38
2022-11-24T17:31:08.095Z,8.38
2022-11-24T17:33:35.525Z,8.77
2022-11-24T17:36:03.591Z,8.57
2022-11-24T17:38:31.050Z,8.95
2022-11-24T17:40:58.602Z,9.13
2022-11-24T17:43:26.107Z,9.15
2022-11-24T17:45:55.429Z,8.40
2022-11-24T17:48:24.912Z,9.05
2022-11-24T17:53:26.961Z,8.55
2022-11-24T17:55:54.311Z,7.85
2022-11-24T17:58:21.642Z,8.25
2022-11-24T18:00:52.193Z,8.30
2022-11-24T18:03:23.551Z,8.35
2022-11-24T18:05:51.174Z,8.68
2022-11-24T18:08:18.743Z,8.02
2022-11-24T18:10:46.328Z,8.10
2022-11-24T18:13:27.695Z,8.38
2022-11-24T18:16:02.026Z,7.78
2022-11-24T18:18:31.062Z,8.07
2022-11-24T18:20:59.553Z,7.85
2022-11-24T18:23:28.221Z,7.43
2022-11-24T18:25:56.280Z,8.63
2022-11-24T18:28:23.675Z,7.45
2022-11-24T18:30:51.728Z,7.70
2022-11-24T18:33:20.051Z,7.43
2022-11-24T18:35:57.515Z,7.70
2022-11-24T18:38:25.121Z,7.03
2022-11-24T18:40:53.799Z,7.80
2022-11-24T18:43:21.683Z,7.20
2022-11-24T18:45:49.260Z,7.93
2022-11-24T18:48:16.632Z,7.07
2022-11-24T18:50:43.960Z,7.00
2022-11-24T18:53:13.054Z,7.63
2022-11-24T18:55:40.571Z,6.72
2022-11-24T18:58:08.065Z,7.78
2022-11-24T19:00:35.583Z,7.45
2022-11-24T19:03:02.953Z,6.90
2022-11-24T19:05:30.389Z,7.07
2022-11-24T19:07:57.777Z,6.78
2022-11-24T19:10:26.608Z,6.85
2022-11-24T19:12:55.814Z,6.63
2022-11-24T19:15:23.204Z,6.03
2022-11-24T19:17:50.665Z,6.75
2022-11-24T19:20:18.165Z,7.38
2022-11-24T19:22:46.991Z,7.03
2022-11-24T19:25:14.534Z,6.65
2022-11-24T19:27:43.401Z,6.57
2022-11-24T19:30:11.449Z,7.07
2022-11-24T19:32:38.800Z,6.82
2022-11-24T19:35:07.198Z,6.47
2022-11-24T19:37:34.980Z,7.05
2022-11-24T19:40:02.414Z,6.45
2022-11-24T19:42:30.025Z,6.63
2022-11-24T19:44:59.029Z,6.75
2022-11-24T19:47:26.431Z,6.68
2022-11-24T19:49:53.812Z,6.88
2022-11-24T19:52:21.594Z,6.28
2022-11-24T19:54:49.255Z,6.45
2022-11-24T19:57:16.612Z,6.53
2022-11-24T19:59:43.979Z,7.10
2022-11-24T20:02:12.892Z,6.85
2022-11-24T20:04:40.319Z,6.65
2022-11-24T20:07:08.290Z,6.40
2022-11-24T20:09:35.721Z,6.00
2022-11-24T20:12:03.467Z,5.85
2022-11-24T20:14:30.921Z,6.38
2022-11-24T20:16:58.322Z,6.38
2022-11-24T20:19:27.337Z,5.60
2022-11-24T20:21:54.803Z,5.68
2022-11-24T20:24:23.628Z,6.03
2022-11-24T20:26:53.268Z,6.17
2022-11-24T20:29:20.944Z,6.43
2022-11-24T20:31:50.913Z,5.93
2022-11-24T20:34:19.079Z,5.90
2022-11-24T20:36:48.809Z,5.53
2022-11-24T20:39:18.634Z,5.32
2022-11-24T20:41:46.210Z,5.80
2022-11-24T20:44:15.151Z,5.45
2022-11-24T20:46:44.352Z,5.75
2022-11-24T20:49:14.213Z,5.50
2022-11-24T20:51:42.705Z,5.68
2022-11-24T20:54:13.141Z,5.90
2022-11-24T20:56:42.484Z,5.03
2022-11-24T20:59:12.976Z,5.38
2022-11-24T21:01:42.019Z,5.93
2022-11-24T21:04:11.263Z,5.18
2022-11-24T21:06:39.027Z,5.40
2022-11-24T21:09:07.674Z,5.15
2022-11-24T21:11:37.375Z,5.20
2022-11-24T21:16:34.216Z,5.47
2022-11-24T21:19:04.794Z,5.50
2022-11-24T21:21:34.612Z,5.13
2022-11-24T21:24:03.972Z,5.18
2022-11-24T21:26:31.468Z,5.15
2022-11-24T21:29:00.814Z,5.55
2022-11-24T21:31:28.260Z,5.53
2022-11-24T21:33:56.072Z,5.40
2022-11-24T21:36:25.430Z,5.40
2022-11-24T21:38:54.400Z,5.05
2022-11-24T21:41:22.589Z,5.22
2022-11-24T21:43:50.295Z,5.05
2022-11-24T21:46:19.310Z,4.75
2022-11-24T21:48:46.795Z,4.65
2022-11-24T21:51:16.100Z,5.20
2022-11-24T21:53:44.450Z,5.15
2022-11-24T21:56:15.065Z,4.43
2022-11-24T21:58:46.611Z,5.03
2022-11-24T22:01:14.669Z,4.90
2022-11-24T22:03:43.669Z,4.75
2022-11-24T22:06:11.143Z,4.77
2022-11-24T22:08:39.039Z,5.38
2022-11-24T22:11:08.602Z,4.63
2022-11-24T22:13:35.975Z,5.32
2022-11-24T22:16:04.788Z,4.88
2022-11-24T22:18:33.754Z,4.67
2022-11-24T22:21:02.969Z,4.60
2022-11-24T22:23:30.858Z,4.72
2022-11-24T22:26:02.835Z,4.57
2022-11-24T22:28:31.393Z,4.80
2022-11-24T22:30:58.814Z,4.72
2022-11-24T22:33:26.456Z,4.75
2022-11-24T22:35:57.463Z,4.30
2022-11-24T22:38:27.180Z,5.03
2022-11-24T22:43:23.255Z,4.68
2022-11-24T22:45:50.655Z,4.22
2022-11-24T22:48:18.012Z,4.50
2022-11-24T22:50:45.377Z,4.55
2022-11-24T22:53:12.678Z,4.00
2022-11-24T22:55:41.412Z,4.50
2022-11-24T22:58:08.784Z,3.85
2022-11-24T23:00:36.150Z,4.07
2022-11-24T23:03:03.509Z,4.05
2022-11-24T23:05:33.247Z,4.40
2022-11-24T23:08:00.759Z,4.25
2022-11-24T23:10:28.460Z,3.90
2022-11-24T23:12:57.228Z,4.13
2022-11-24T23:15:24.598Z,4.23
2022-11-24T23:17:51.947Z,4.40
2022-11-24T23:20:19.336Z,3.97
2022-11-24T23:22:46.715Z,4.05
2022-11-24T23:25:14.107Z,5.07
2022-11-24T23:27:41.436Z,4.32
2022-11-24T23:30:10.874Z,4.45
2022-11-24T23:32:38.174Z,4.05
2022-11-24T23:35:10.918Z,4.07
2022-11-24T23:38:06.146Z,4.75
2022-11-24T23:40:28.396Z,3.83
2022-11-24T23:42:55.713Z,3.80
2022-11-24T23:45:24.562Z,3.72
2022-11-24T23:47:53.794Z,4.15
2022-11-24T23:50:21.540Z,4.18
2022-11-24T23:52:49.006Z,3.80
2022-11-24T23:55:16.441Z,3.80
2022-11-24T23:57:44.260Z,4.00
